createdAt,value
2023-02-08T00:05:27.546Z,35.7
2023-02-08T00:11:04.353Z,35.6
2023-02-08T00:16:41.548Z,35.6
2023-02-08T00:22:19.674Z,35.5
2023-02-08T00:27:59.023Z,35.4
2023-02-08T00:33:21.276Z,35.3
2023-02-08T00:38:58.721Z,35.3
2023-02-08T00:44:36.674Z,35.2
2023-02-08T00:50:14.660Z,35.1
2023-02-08T00:55:52.000Z,35.1
2023-02-08T01:01:27.999Z,35
2023-02-08T01:07:20.688Z,34.9
2023-02-08T01:12:59.106Z,34.9
2023-02-08T01:18:20.064Z,34.8
2023-02-08T01:23:26.592Z,34.8
2023-02-08T01:29:04.632Z,34.7
2023-02-08T01:34:26.642Z,34.6
2023-02-08T01:39:48.183Z,34.6
2023-02-08T01:45:10.871Z,34.5
2023-02-08T01:50:48.112Z,34.4
2023-02-08T01:56:24.781Z,34.4
2023-02-08T02:02:03.101Z,34.5
2023-02-08T02:07:39.380Z,35.8
2023-02-08T02:13:16.414Z,36.8
2023-02-08T02:18:54.168Z,37.3
2023-02-08T02:24:33.678Z,38
2023-02-08T02:30:10.613Z,38.6
2023-02-08T02:35:48.568Z,39.3
2023-02-08T02:41:24.788Z,39.9
2023-02-08T02:47:01.892Z,40.6
2023-02-08T02:52:24.033Z,41.3
2023-02-08T02:58:00.639Z,41.9
2023-02-08T03:03:22.341Z,42.6
2023-02-08T03:08:45.463Z,43.2
2023-02-08T03:14:20.935Z,44
2023-02-08T03:19:57.128Z,44.4
2023-02-08T03:25:34.516Z,44.6
2023-02-08T03:30:56.024Z,44.6
2023-02-08T03:36:18.058Z,44.8
2023-02-08T03:41:56.168Z,44.9
2023-02-08T03:47:32.754Z,44.9
2023-02-08T03:53:09.649Z,44.9
2023-02-08T03:58:47.287Z,44.9
2023-02-08T04:04:08.614Z,44.8
2023-02-08T04:09:29.368Z,44.8
2023-02-08T04:15:07.056Z,44.8
2023-02-08T04:20:43.159Z,44.8
2023-02-08T04:26:19.446Z,44.7
2023-02-08T04:31:58.777Z,44.6
2023-02-08T04:37:36.141Z,44.6
2023-02-08T04:43:12.844Z,44.6
2023-02-08T04:48:50.986Z,44.5
2023-02-08T04:54:29.357Z,44.4
2023-02-08T05:00:06.634Z,44.4
2023-02-08T05:05:44.546Z,44.3
2023-02-08T05:11:20.765Z,44.3
2023-02-08T05:17:01.106Z,44.2
2023-02-08T05:22:38.804Z,44.1
2023-02-08T05:28:16.628Z,44.1
2023-02-08T05:33:55.412Z,44
2023-02-08T05:39:33.745Z,43.9
2023-02-08T05:45:10.569Z,43.8
2023-02-08T05:50:34.729Z,43.8
2023-02-08T05:55:57.472Z,43.7
2023-02-08T06:01:34.217Z,43.6
2023-02-08T06:06:56.511Z,43.6
2023-02-08T06:12:19.561Z,43.4
2023-02-08T06:17:59.189Z,43.4
2023-02-08T06:23:36.775Z,43.3
2023-02-08T06:29:13.896Z,43.3
2023-02-08T06:34:54.553Z,43.2
2023-02-08T06:40:32.695Z,43.1
2023-02-08T06:46:19.854Z,43.1
2023-02-08T06:51:56.786Z,42.9
2023-02-08T06:57:33.846Z,42.9
2023-02-08T07:03:11.776Z,42.8
2023-02-08T07:08:55.969Z,42.7
2023-02-08T07:14:32.661Z,42.6
2023-02-08T07:19:55.361Z,42.5
2023-02-08T07:25:31.651Z,42.4
2023-02-08T07:31:08.112Z,42.4
2023-02-08T07:36:48.477Z,42.3
2023-02-08T07:42:24.281Z,52.7
2023-02-08T07:48:00.189Z,49.3
2023-02-08T07:53:37.722Z,46.4
2023-02-08T07:59:16.411Z,44.6
2023-02-08T08:05:02.761Z,43.6
2023-02-08T08:10:42.916Z,42.8
2023-02-08T08:16:04.034Z,53.6
2023-02-08T08:21:42.915Z,48.9
2023-02-08T08:27:21.293Z,54.7
2023-02-08T08:33:01.180Z,54.8
2023-02-08T08:38:38.483Z,55.6
2023-02-08T08:44:16.495Z,56.3
2023-02-08T08:49:37.556Z,57.1
2023-02-08T08:55:14.921Z,57.7
2023-02-08T09:00:36.462Z,58.3
2023-02-08T09:06:13.882Z,58.8
2023-02-08T09:11:50.591Z,59.3
2023-02-08T09:17:30.529Z,59.6
2023-02-08T09:23:07.701Z,59.9
2023-02-08T09:28:45.421Z,59.9
2023-02-08T09:34:09.296Z,59.9
2023-02-08T09:39:46.404Z,60.3
2023-02-08T09:45:07.098Z,59.5
2023-02-08T09:50:55.585Z,58.6
2023-02-08T09:56:34.626Z,58.4
2023-02-08T10:01:56.619Z,60.2
2023-02-08T10:07:34.752Z,60.8
2023-02-08T10:13:06.381Z,61.2
2023-02-08T10:18:41.750Z,61.7
2023-02-08T10:24:19.317Z,62.1
2023-02-08T10:29:42.105Z,62.4
2023-02-08T10:35:22.637Z,62.1
2023-02-08T10:41:19.286Z,61.3
2023-02-08T10:47:20.184Z,61.8
2023-02-08T10:53:03.155Z,56.6
2023-02-08T11:04:19.348Z,57.8
2023-02-08T11:10:03.884Z,60.8
2023-02-08T11:15:54.775Z,61.8
2023-02-08T11:21:37.420Z,61.8
2023-02-08T11:27:20.948Z,61.8
2023-02-08T11:33:05.729Z,57.1
2023-02-08T11:38:48.539Z,59.1
2023-02-08T11:44:31.771Z,60.9
2023-02-08T11:50:13.528Z,61.8
2023-02-08T11:55:36.743Z,62.1
2023-02-08T12:01:13.218Z,62.1
2023-02-08T12:06:05.298Z,62.2
2023-02-08T12:11:43.258Z,61.4
2023-02-08T12:17:38.180Z,61.8
2023-02-08T12:23:16.951Z,61.9
2023-02-08T12:28:56.229Z,61.4
2023-02-08T12:34:48.910Z,61.4
2023-02-08T12:41:01.029Z,61.4
2023-02-08T12:46:40.107Z,61.2
2023-02-08T12:52:32.407Z,60.7
2023-02-08T12:58:07.625Z,56.6
2023-02-08T13:03:43.902Z,52.8
2023-02-08T13:09:28.354Z,50.9
2023-02-08T13:15:29.996Z,49.5
2023-02-08T13:21:21.975Z,48.3
2023-02-08T13:27:22.082Z,47.3
2023-02-08T13:33:01.999Z,46.6
2023-02-08T13:39:03.495Z,45.9
2023-02-08T13:44:56.813Z,45.3
2023-02-08T13:50:35.233Z,44.8
2023-02-08T13:55:56.294Z,44.1
2023-02-08T14:01:33.599Z,41.1
2023-02-08T14:07:11.003Z,34.9
2023-02-08T14:12:51.316Z,32.5
2023-02-08T14:18:14.971Z,31.1
2023-02-08T14:23:51.649Z,30.1
2023-02-08T14:29:28.383Z,29.3
2023-02-08T14:35:07.663Z,28.6
2023-02-08T14:40:52.225Z,28.1
2023-02-08T14:46:17.457Z,27.6
2023-02-08T14:51:54.010Z,27.3
2023-02-08T14:57:15.662Z,27
2023-02-08T15:02:37.569Z,26.8
2023-02-08T15:08:22.626Z,26.8
2023-02-08T15:14:01.120Z,26.7
2023-02-08T15:19:41.571Z,26.6
2023-02-08T15:25:19.109Z,26.4
2023-02-08T15:31:07.017Z,26.3
2023-02-08T15:36:44.532Z,26.3
2023-02-08T15:42:22.299Z,26.3
2023-02-08T15:48:00.172Z,26.2
2023-02-08T15:53:36.711Z,26.2
2023-02-08T15:59:09.461Z,26.1
2023-02-08T16:04:32.407Z,26.1
2023-02-08T16:09:38.867Z,26.1
2023-02-08T16:15:25.765Z,26.1
2023-02-08T16:21:18.392Z,26.1
2023-02-08T16:26:40.180Z,26.1
2023-02-08T16:32:19.136Z,26.1
2023-02-08T16:37:57.092Z,26.1
2023-02-08T16:43:50.654Z,26.1
2023-02-08T16:49:40.776Z,26.1
2023-02-08T16:55:23.446Z,26.1
2023-02-08T17:00:44.904Z,26
2023-02-08T17:06:26.027Z,25.8
2023-02-08T17:12:10.743Z,25.6
2023-02-08T17:17:52.927Z,25.6
2023-02-08T17:23:30.248Z,25.6
2023-02-08T17:29:10.506Z,25.6
2023-02-08T17:34:33.776Z,25.6
2023-02-08T17:40:11.151Z,25.5
2023-02-08T17:45:48.150Z,25.5
2023-02-08T17:51:10.476Z,25.5
2023-02-08T17:56:35.417Z,25.4
2023-02-08T18:02:17.234Z,25.3
2023-02-08T18:07:55.531Z,25.1
2023-02-08T18:13:33.382Z,24.9
2023-02-08T18:19:12.137Z,24.9
2023-02-08T18:24:34.081Z,24.8
2023-02-08T18:30:12.069Z,24.8
2023-02-08T18:35:53.534Z,24.8
2023-02-08T18:41:31.778Z,24.8
2023-02-08T18:47:09.646Z,24.8
2023-02-08T18:53:04.494Z,24.8
2023-02-08T18:58:42.544Z,24.8
2023-02-08T19:04:05.932Z,24.9
2023-02-08T19:09:43.617Z,24.9
2023-02-08T19:15:21.688Z,24.9
2023-02-08T19:20:59.229Z,24.9
2023-02-08T19:26:21.707Z,24.9
2023-02-08T19:31:59.924Z,24.3
2023-02-08T19:37:37.328Z,23.8
2023-02-08T19:43:14.796Z,23.6
2023-02-08T19:49:12.871Z,23.4
2023-02-08T19:54:34.457Z,23.4
2023-02-08T19:59:56.238Z,23.4
2023-02-08T20:05:50.734Z,23.3
2023-02-08T20:11:28.294Z,23.2
2023-02-08T20:17:21.273Z,25.3
2023-02-08T20:22:59.035Z,28.4
2023-02-08T20:28:43.981Z,31.4
2023-02-08T20:34:22.383Z,34.1
2023-02-08T20:40:15.503Z,36.5
2023-02-08T20:45:52.831Z,38.4
2023-02-08T20:51:46.576Z,39.8
2023-02-08T20:57:24.033Z,40.9
2023-02-08T21:03:11.277Z,41.6
2023-02-08T21:08:33.438Z,42.4
2023-02-08T21:14:12.253Z,42.9
2023-02-08T21:19:52.657Z,43.1
2023-02-08T21:25:30.759Z,43.2
2023-02-08T21:31:08.531Z,43.3
2023-02-08T21:36:48.612Z,43.3
2023-02-08T21:42:25.931Z,43.3
2023-02-08T21:48:04.169Z,43.3
2023-02-08T21:53:25.552Z,43.4
2023-02-08T21:59:05.237Z,43.3
2023-02-08T22:04:27.713Z,43.3
2023-02-08T22:10:04.207Z,43.3
2023-02-08T22:15:45.144Z,43.2
2023-02-08T22:21:22.857Z,43.1
2023-02-08T22:26:59.407Z,43.1
2023-02-08T22:32:39.675Z,43
2023-02-08T22:38:01.453Z,42.9
2023-02-08T22:43:38.313Z,42.9
2023-02-08T22:49:15.764Z,42.8
2023-02-08T22:54:52.934Z,42.7
2023-02-08T23:00:29.714Z,42.6
2023-02-08T23:06:07.647Z,42.6
2023-02-08T23:11:44.519Z,42.4
2023-02-08T23:17:21.955Z,42.4
2023-02-08T23:23:02.334Z,42.3
2023-02-08T23:28:39.572Z,42.2
2023-02-08T23:34:16.332Z,42.1
2023-02-08T23:39:37.955Z,42
2023-02-08T23:45:16.018Z,41.9
2023-02-08T23:50:38.055Z,41.9
2023-02-08T23:56:15.944Z,41.8
